Time;durP1;ratioP1;P1;durP2;ratioP2;P2;SDS_P1;SDS_P2;PMS_P1;PMS_P2;Temp;Humidity;BMP_temperature;BMP_pressure;BME280_temperature;BME280_humidity;BME280_pressure;Samples;Min_cycle;Max_cycle;Signal;HPM_P1;HPM_P2
2023/09/23 00:02:12;;;;;;;1.20;0.80;;;;;;;16.90;78.18;100215.31;5014066;28;20794;-73
2023/09/23 00:04:39;;;;;;;2.50;1.05;;;;;;;16.88;78.15;100211.94;5014355;28;20054;-73
2023/09/23 00:07:09;;;;;;;3.97;0.75;;;;;;;16.87;78.38;100220.75;4993901;28;21266;-73
2023/09/23 00:09:36;;;;;;;3.40;1.02;;;;;;;16.85;78.15;100220.88;5020513;28;20049;-73
2023/09/23 00:12:03;;;;;;;3.55;1.50;;;;;;;16.83;78.13;100222.72;5012716;28;20049;-73
2023/09/23 00:14:30;;;;;;;2.13;0.70;;;;;;;16.82;78.12;100226.31;5018736;28;20140;-73
2023/09/23 00:16:58;;;;;;;5.00;1.02;;;;;;;16.82;78.32;100217.53;5019697;28;20077;-74
2023/09/23 00:19:26;;;;;;;1.05;0.80;;;;;;;16.79;78.21;100221.19;5015264;28;20042;-76
2023/09/23 00:21:54;;;;;;;1.52;0.82;;;;;;;16.78;78.28;100224.75;5019259;28;20053;-75
2023/09/23 00:24:23;;;;;;;1.80;0.80;;;;;;;16.78;78.11;100231.81;5017433;28;20509;-76
2023/09/23 00:26:50;;;;;;;8.35;0.70;;;;;;;16.77;77.94;100233.59;5017856;28;20054;-74
2023/09/23 00:29:17;;;;;;;4.18;0.60;;;;;;;16.76;77.92;100239.81;5016998;28;20042;-75
2023/09/23 00:31:44;;;;;;;3.03;0.95;;;;;;;16.75;78.12;100242.50;5016420;28;20145;-75
2023/09/23 00:34:12;;;;;;;3.85;0.80;;;;;;;16.72;78.04;100227.69;5019456;28;20578;-76
2023/09/23 00:36:39;;;;;;;3.25;0.88;;;;;;;16.72;78.21;100230.31;5018929;28;20060;-78
2023/09/23 00:39:06;;;;;;;3.20;0.60;;;;;;;16.71;77.92;100236.53;5025729;28;20065;-78
2023/09/23 00:41:35;;;;;;;3.45;0.60;;;;;;;16.69;78.10;100238.41;5022362;28;20128;-78
2023/09/23 00:44:01;;;;;;;1.40;1.27;;;;;;;16.69;78.08;100240.19;5024659;28;20160;-78
2023/09/23 00:46:28;;;;;;;2.75;0.85;;;;;;;16.67;78.06;100231.50;5019012;28;20079;-78
2023/09/23 00:48:56;;;;;;;1.30;0.80;;;;;;;16.64;77.91;100227.22;5021060;28;20060;-78
2023/09/23 00:51:23;;;;;;;1.83;0.80;;;;;;;16.64;78.06;100232.50;5025713;28;20045;-78
2023/09/23 00:53:51;;;;;;;2.47;0.93;;;;;;;16.63;77.88;100225.53;5019799;28;21923;-77
2023/09/23 00:56:23;;;;;;;2.60;0.70;;;;;;;16.62;77.79;100240.50;5023169;28;20050;-77
2023/09/23 00:58:51;;;;;;;2.45;0.80;;;;;;;16.61;77.91;100243.22;5020636;28;20047;-77
2023/09/23 01:01:18;;;;;;;2.25;0.88;;;;;;;16.58;77.85;100256.56;5025744;28;20053;-77
2023/09/23 01:03:45;;;;;;;2.35;0.60;;;;;;;16.52;77.68;100233.16;5021037;28;20085;-78
2023/09/23 01:06:15;;;;;;;1.88;0.60;;;;;;;16.56;77.57;100242.59;5024403;28;20092;-77
2023/09/23 01:08:45;;;;;;;2.80;0.60;;;;;;;16.54;77.67;100242.69;5022447;28;20045;-77
2023/09/23 01:11:12;;;;;;;3.33;0.80;;;;;;;16.48;77.52;100240.38;5020745;28;20042;-77
2023/09/23 01:13:42;;;;;;;3.15;0.68;;;;;;;16.52;77.58;100256.88;5020275;28;20049;-78
2023/09/23 01:16:13;;;;;;;2.45;0.70;;;;;;;16.51;77.40;100257.81;5023301;28;20045;-77
2023/09/23 01:18:40;;;;;;;3.53;0.55;;;;;;;16.48;77.53;100260.59;5022976;28;20064;-76
2023/09/23 01:21:08;;;;;;;3.42;1.00;;;;;;;16.48;77.77;100247.41;5024140;28;20049;-78
2023/09/23 01:23:38;;;;;;;1.25;0.70;;;;;;;16.47;77.56;100253.63;5015239;28;20053;-77
2023/09/23 01:26:05;;;;;;;1.35;0.70;;;;;;;16.45;77.69;100252.84;5019029;28;20066;-75
2023/09/23 01:28:33;;;;;;;1.83;0.60;;;;;;;16.44;77.59;100264.31;5021453;28;20620;-75
2023/09/23 01:31:02;;;;;;;4.57;0.60;;;;;;;16.39;77.68;100262.78;5021342;28;20041;-75
2023/09/23 01:33:29;;;;;;;1.52;0.60;;;;;;;16.40;77.49;100277.66;5022972;28;20042;-75
2023/09/23 01:36:02;;;;;;;1.23;0.60;;;;;;;16.39;77.68;100291.78;5019078;28;21169;-75
2023/09/23 01:38:29;;;;;;;0.90;0.70;;;;;;;16.37;77.54;100284.88;5025804;28;20046;-75
2023/09/23 01:40:57;;;;;;;0.75;0.60;;;;;;;16.36;77.50;100254.16;5016464;28;20053;-75
2023/09/23 01:43:25;;;;;;;1.88;0.50;;;;;;;16.35;77.80;100245.41;5025245;28;20041;-76
2023/09/23 01:45:55;;;;;;;3.15;0.50;;;;;;;16.33;77.63;100241.97;5022894;28;20042;-74
2023/09/23 01:48:22;;;;;;;0.63;0.57;;;;;;;16.31;77.69;100254.41;5015503;28;20142;-74
2023/09/23 01:50:49;;;;;;;2.95;0.50;;;;;;;16.30;77.35;100252.69;5019351;28;20103;-74
2023/09/23 01:53:19;;;;;;;0.55;0.32;;;;;;;16.28;77.56;100244.03;5021862;28;20395;-73
2023/09/23 01:55:46;;;;;;;2.75;0.40;;;;;;;16.25;77.62;100244.19;5016309;28;20501;-73
2023/09/23 01:58:15;;;;;;;2.08;0.40;;;;;;;16.25;77.36;100252.09;5016152;28;20103;-73
2023/09/23 02:00:42;;;;;;;3.05;0.68;;;;;;;16.20;77.04;100272.53;5017616;28;20049;-74
2023/09/23 02:03:09;;;;;;;6.53;0.68;;;;;;;16.20;76.72;100298.91;5022022;28;20049;-73
2023/09/23 02:05:36;;;;;;;6.07;0.40;;;;;;;16.18;76.72;100303.38;5017763;28;20053;-73
2023/09/23 02:08:03;;;;;;;4.40;0.30;;;;;;;16.14;76.54;100300.06;4995553;28;20049;-73
2023/09/23 02:10:30;;;;;;;2.85;0.30;;;;;;;16.13;76.57;100300.13;5014614;28;20431;-73
2023/09/23 02:12:57;;;;;;;2.70;0.40;;;;;;;16.10;76.33;100314.28;5011916;28;20042;-74
2023/09/23 02:15:26;;;;;;;4.28;0.30;;;;;;;16.07;76.04;100319.72;5014990;28;20052;-74
2023/09/23 02:17:53;;;;;;;2.33;0.40;;;;;;;16.05;75.85;100308.41;5013627;28;20136;-74
2023/09/23 02:20:21;;;;;;;0.30;0.30;;;;;;;16.03;76.03;100301.50;5015385;28;20053;-74
2023/09/23 02:22:48;;;;;;;1.35;0.40;;;;;;;16.00;75.94;100318.31;5016199;28;20597;-74
2023/09/23 02:25:16;;;;;;;2.75;0.40;;;;;;;15.96;75.74;100325.50;5014703;28;20061;-73
2023/09/23 02:27:45;;;;;;;1.55;0.40;;;;;;;15.94;75.84;100321.25;5014123;28;20509;-74
2023/09/23 02:30:13;;;;;;;2.50;0.30;;;;;;;15.90;75.57;100312.63;5014213;28;20551;-74
2023/09/23 02:32:43;;;;;;;2.60;0.30;;;;;;;15.84;75.42;100315.53;5016299;28;20046;-74
2023/09/23 02:35:11;;;;;;;0.60;0.30;;;;;;;15.82;75.08;100327.94;5016410;28;20045;-83
2023/09/23 02:37:40;;;;;;;2.13;0.20;;;;;;;15.80;75.28;100328.94;5028653;28;20049;-84
2023/09/23 02:40:11;;;;;;;0.95;0.40;;;;;;;15.72;75.38;100316.13;5021445;28;20557;-84
2023/09/23 02:42:42;;;;;;;0.93;0.30;;;;;;;15.72;75.35;100316.13;5022456;28;20482;-83
2023/09/23 02:45:10;;;;;;;1.35;0.30;;;;;;;15.68;75.27;100306.66;5022824;28;20487;-84
2023/09/23 02:47:39;;;;;;;0.73;0.50;;;;;;;15.64;74.83;100315.59;5025192;28;20052;-83
2023/09/23 02:50:09;;;;;;;2.47;0.30;;;;;;;15.60;74.96;100324.59;5030262;28;20049;-83
2023/09/23 02:52:39;;;;;;;0.30;0.30;;;;;;;15.58;74.82;100339.59;5023596;28;20060;-83
2023/09/23 02:55:12;;;;;;;0.63;0.20;;;;;;;15.48;74.58;100353.19;5022524;28;20064;-79
2023/09/23 02:57:40;;;;;;;1.33;0.30;;;;;;;15.49;74.45;100362.78;5025151;28;20077;-79
2023/09/23 03:00:16;;;;;;;1.00;0.20;;;;;;;15.47;74.62;100366.41;5019662;28;20777;-79
2023/09/23 03:02:45;;;;;;;0.40;0.20;;;;;;;15.41;74.58;100367.53;5026785;28;20049;-78
2023/09/23 03:05:17;;;;;;;1.75;0.22;;;;;;;15.38;74.79;100370.31;5024780;28;20548;-79
2023/09/23 03:07:48;;;;;;;0.52;0.28;;;;;;;15.34;74.75;100368.75;5026223;28;20049;-78
2023/09/23 03:10:19;;;;;;;1.40;0.20;;;;;;;15.30;74.57;100365.38;5022827;28;20057;-78
2023/09/23 03:12:56;;;;;;;0.65;0.20;;;;;;;15.25;74.66;100364.75;5024662;28;20049;-78
2023/09/23 03:15:33;;;;;;;0.47;0.20;;;;;;;15.22;74.50;100350.84;5022825;28;20135;-78
2023/09/23 03:18:00;;;;;;;0.30;0.20;;;;;;;15.19;74.57;100314.16;5020691;28;20565;-79
2023/09/23 03:20:30;;;;;;;0.50;0.20;;;;;;;15.15;74.52;100325.75;5021464;28;20049;-78
2023/09/23 03:22:57;;;;;;;0.43;0.20;;;;;;;15.11;74.52;100347.84;5020741;28;20124;-78
2023/09/23 03:25:25;;;;;;;0.88;0.20;;;;;;;15.01;74.64;100348.25;5017316;28;20045;-78
2023/09/23 03:27:52;;;;;;;2.42;0.30;;;;;;;15.01;74.62;100348.25;5023994;28;20053;-78
2023/09/23 03:30:20;;;;;;;1.10;0.25;;;;;;;14.93;74.37;100333.72;5025528;28;20052;-78
2023/09/23 03:32:49;;;;;;;0.85;0.20;;;;;;;14.93;74.31;100331.09;5024309;28;20050;-78
2023/09/23 03:35:17;;;;;;;4.15;0.75;;;;;;;14.89;74.36;100327.75;5028481;28;20492;-78
2023/09/23 03:37:49;;;;;;;2.25;0.15;;;;;;;14.85;74.39;100327.00;5020921;28;20060;-78
2023/09/23 03:40:19;;;;;;;0.55;0.17;;;;;;;14.82;74.11;100323.66;5017012;28;20077;-78
2023/09/23 03:42:48;;;;;;;0.20;0.20;;;;;;;14.78;74.31;100330.84;5019054;28;20084;-78
2023/09/23 03:45:18;;;;;;;0.40;0.17;;;;;;;14.71;74.26;100344.28;5027702;28;20411;-77
2023/09/23 03:47:46;;;;;;;1.73;0.40;;;;;;;14.70;74.32;100351.34;5021397;28;20058;-78
2023/09/23 03:50:13;;;;;;;2.47;0.20;;;;;;;14.67;74.42;100363.75;5023897;28;20045;-78
2023/09/23 03:52:41;;;;;;;1.85;0.20;;;;;;;14.64;74.61;100370.00;5020557;28;20046;-78
2023/09/23 03:55:13;;;;;;;0.40;0.20;;;;;;;14.61;74.42;100363.09;5025212;28;20091;-77
2023/09/23 03:57:42;;;;;;;0.40;0.20;;;;;;;14.58;74.51;100365.84;5018220;28;20052;-78
2023/09/23 04:00:15;;;;;;;0.40;0.20;;;;;;;14.54;74.74;100372.16;5025509;28;20069;-78
2023/09/23 04:02:43;;;;;;;0.95;0.10;;;;;;;14.52;74.48;100368.75;5020607;28;20101;-78
2023/09/23 04:05:10;;;;;;;1.88;0.20;;;;;;;14.49;74.58;100366.22;5019296;28;20046;-83
2023/09/23 04:07:39;;;;;;;0.90;0.20;;;;;;;14.46;74.64;100371.59;5025503;28;20038;-83
2023/09/23 04:10:10;;;;;;;0.30;0.20;;;;;;;14.41;74.57;100384.06;5027132;28;20467;-83
2023/09/23 04:12:38;;;;;;;2.55;0.20;;;;;;;14.40;74.73;100395.50;5019336;28;20117;-82
2023/09/23 04:15:08;;;;;;;2.00;0.30;;;;;;;14.37;74.57;100406.09;5021465;28;20049;-82
2023/09/23 04:17:37;;;;;;;0.70;0.28;;;;;;;14.34;74.73;100408.84;5027077;28;20071;-83
2023/09/23 04:20:10;;;;;;;0.13;0.10;;;;;;;14.30;74.61;100409.91;5022624;28;20085;-82
2023/09/23 04:22:37;;;;;;;1.00;0.20;;;;;;;14.25;74.73;100412.69;5022784;28;20053;-81
2023/09/23 04:25:06;;;;;;;0.50;0.30;;;;;;;14.27;74.74;100412.66;5027315;28;20045;-82
2023/09/23 04:27:36;;;;;;;1.85;0.20;;;;;;;14.24;74.82;100413.63;5022575;28;20107;-82
2023/09/23 04:30:04;;;;;;;1.48;0.20;;;;;;;14.21;74.93;100412.91;5026546;28;20045;-83
2023/09/23 04:32:31;;;;;;;0.17;0.10;;;;;;;14.17;74.89;100410.41;5020142;28;20037;-83
2023/09/23 04:34:58;;;;;;;1.55;0.20;;;;;;;14.16;74.80;100413.06;5018293;28;20425;-83
2023/09/23 04:37:27;;;;;;;0.98;0.35;;;;;;;14.03;74.92;100398.69;5024494;28;20076;-83
2023/09/23 04:39:54;;;;;;;2.63;0.20;;;;;;;14.10;75.02;100411.53;5019151;28;20049;-83
2023/09/23 04:42:22;;;;;;;0.45;0.10;;;;;;;14.08;74.94;100407.25;5024366;28;20475;-83
2023/09/23 04:44:51;;;;;;;1.90;0.10;;;;;;;14.06;75.30;100411.69;5021714;28;20045;-82
2023/09/23 04:47:19;;;;;;;2.05;0.20;;;;;;;14.04;75.29;100411.78;5024643;28;20607;-82
2023/09/23 04:49:46;;;;;;;2.75;0.30;;;;;;;14.03;75.41;100412.72;5024294;28;20080;-83
2023/09/23 04:52:15;;;;;;;0.20;0.10;;;;;;;14.00;75.56;100410.16;5018446;28;20042;-82
2023/09/23 04:54:42;;;;;;;1.98;0.20;;;;;;;14.00;75.53;100398.81;5015337;28;20041;-78
2023/09/23 04:57:09;;;;;;;1.30;0.22;;;;;;;14.00;75.73;100404.06;5011846;28;20056;-73
2023/09/23 04:59:36;;;;;;;0.50;0.30;;;;;;;13.99;75.80;100397.97;5015608;28;20045;-73
2023/09/23 05:02:04;;;;;;;2.28;0.28;;;;;;;13.96;75.72;100387.59;5014248;28;20041;-73
2023/09/23 05:04:31;;;;;;;0.40;0.20;;;;;;;13.97;76.06;100391.06;5016928;28;20050;-72
2023/09/23 05:07:00;;;;;;;0.40;0.20;;;;;;;13.97;76.13;100394.53;5012015;28;20075;-72
2023/09/23 05:09:27;;;;;;;1.98;0.25;;;;;;;13.95;76.21;100406.88;5015154;28;20041;-73
2023/09/23 05:11:55;;;;;;;0.73;0.30;;;;;;;13.94;76.22;100400.78;5017799;28;20041;-73
2023/09/23 05:14:25;;;;;;;1.67;0.40;;;;;;;13.93;76.24;100409.56;5020969;28;20037;-72
2023/09/23 05:16:52;;;;;;;0.30;0.20;;;;;;;13.92;76.33;100422.75;5014685;28;20050;-72
2023/09/23 05:19:20;;;;;;;0.45;0.20;;;;;;;13.92;76.44;100423.63;5019736;28;20037;-73
2023/09/23 05:21:47;;;;;;;1.88;0.20;;;;;;;13.90;76.61;100424.59;5017056;28;20111;-73
2023/09/23 05:24:14;;;;;;;1.52;0.32;;;;;;;13.90;76.59;100429.84;5013538;28;20144;-73
2023/09/23 05:26:41;;;;;;;2.00;0.30;;;;;;;13.89;76.57;100428.13;5016195;28;20073;-73
2023/09/23 05:29:08;;;;;;;1.52;0.20;;;;;;;13.89;76.75;100436.00;5020081;28;20399;-72
2023/09/23 05:31:36;;;;;;;1.33;0.20;;;;;;;13.89;76.80;100438.63;5017571;28;20496;-72
2023/09/23 05:34:03;;;;;;;1.85;0.20;;;;;;;13.89;76.83;100449.13;5022917;28;20049;-73
2023/09/23 05:36:31;;;;;;;0.85;0.20;;;;;;;13.89;76.92;100449.13;5010707;28;20212;-72
2023/09/23 05:38:58;;;;;;;1.00;0.10;;;;;;;13.88;76.97;100452.66;5020725;28;20054;-72
2023/09/23 05:41:25;;;;;;;1.30;0.20;;;;;;;13.89;77.32;100459.63;5016151;28;20053;-72
2023/09/23 05:43:53;;;;;;;0.32;0.20;;;;;;;13.89;77.40;100464.91;5014859;28;20087;-73
2023/09/23 05:46:20;;;;;;;2.38;0.30;;;;;;;13.89;77.41;100478.03;5014210;28;20033;-73
2023/09/23 05:48:48;;;;;;;1.00;0.20;;;;;;;13.89;77.59;100475.41;5019393;28;20046;-72
2023/09/23 05:51:15;;;;;;;1.60;0.30;;;;;;;13.90;77.71;100488.44;5017347;28;20055;-72
2023/09/23 05:53:44;;;;;;;5.82;0.20;;;;;;;13.92;77.90;100484.00;5018790;28;20045;-73
2023/09/23 05:56:10;;;;;;;5.22;0.25;;;;;;;13.93;77.95;100498.84;5013560;28;20513;-72
2023/09/23 05:58:37;;;;;;;1.35;0.30;;;;;;;13.93;78.07;100509.34;5019305;28;20053;-72
2023/09/23 06:01:05;;;;;;;1.42;0.20;;;;;;;13.89;78.18;100497.25;5020156;28;20050;-74
2023/09/23 06:03:32;;;;;;;0.40;0.20;;;;;;;13.96;78.15;100505.75;5015222;28;20053;-74
2023/09/23 06:05:59;;;;;;;0.73;0.30;;;;;;;13.95;78.49;100510.16;5022379;28;20399;-84
2023/09/23 06:08:26;;;;;;;2.67;0.30;;;;;;;13.97;78.45;100528.47;5025049;28;20144;-82
2023/09/23 06:11:04;;;;;;;2.72;0.43;;;;;;;14.00;78.52;100528.34;5026090;28;20052;-83
2023/09/23 06:13:31;;;;;;;1.75;0.30;;;;;;;14.02;78.65;100523.06;5025804;28;20042;-83
2023/09/23 06:16:02;;;;;;;4.40;0.30;;;;;;;14.01;78.77;100509.06;5026354;28;20042;-84
2023/09/23 06:18:29;;;;;;;0.38;0.20;;;;;;;14.02;78.82;100505.53;5024593;28;20061;-82
2023/09/23 06:20:58;;;;;;;2.67;0.30;;;;;;;14.01;78.91;100506.44;5025168;28;20057;-82
2023/09/23 06:23:25;;;;;;;2.25;0.30;;;;;;;14.03;78.72;100512.50;5021780;28;20107;-82
2023/09/23 06:25:55;;;;;;;0.35;0.20;;;;;;;14.06;79.06;100520.28;5020522;28;20055;-76
2023/09/23 06:28:22;;;;;;;2.15;0.20;;;;;;;14.04;79.10;100527.34;5017722;28;20046;-76
2023/09/23 06:30:49;;;;;;;1.08;0.35;;;;;;;14.09;79.16;100535.06;5013836;28;20050;-76
2023/09/23 06:33:16;;;;;;;0.95;0.20;;;;;;;14.07;79.03;100524.59;5020017;28;20418;-77
2023/09/23 06:35:42;;;;;;;0.68;0.38;;;;;;;14.12;79.29;100527.91;5021156;28;20045;-77
2023/09/23 06:38:09;;;;;;;1.02;0.25;;;;;;;14.13;79.25;100524.38;5017507;28;20046;-76
2023/09/23 06:40:36;;;;;;;0.52;0.30;;;;;;;14.15;79.36;100538.31;5019211;28;20053;-77
2023/09/23 06:43:05;;;;;;;3.25;0.20;;;;;;;14.13;79.56;100549.78;5018023;28;20052;-76
2023/09/23 06:45:32;;;;;;;0.77;0.57;;;;;;;14.18;79.41;100551.31;5019782;28;20046;-76
2023/09/23 06:47:59;;;;;;;0.50;0.30;;;;;;;14.21;79.58;100552.13;5015340;28;20065;-76
2023/09/23 06:50:26;;;;;;;0.57;0.20;;;;;;;14.22;79.69;100545.97;5017603;28;20057;-76
2023/09/23 06:52:53;;;;;;;1.38;0.50;;;;;;;14.24;79.81;100549.38;5016015;28;20556;-76
2023/09/23 06:55:20;;;;;;;0.77;0.20;;;;;;;14.25;79.73;100551.94;5018350;28;20461;-76
2023/09/23 06:57:47;;;;;;;1.60;0.30;;;;;;;14.29;79.96;100560.59;5002536;28;20046;-78
2023/09/23 07:00:16;;;;;;;0.38;0.20;;;;;;;14.30;79.85;100549.16;5018974;28;20046;-76
2023/09/23 07:02:43;;;;;;;0.65;0.20;;;;;;;14.32;79.94;100560.47;5018387;28;20053;-76
2023/09/23 07:05:10;;;;;;;4.00;0.15;;;;;;;14.34;80.06;100558.63;5016542;28;20057;-76
2023/09/23 07:07:37;;;;;;;1.88;0.30;;;;;;;14.36;80.08;100569.94;5019836;28;20054;-76
2023/09/23 07:10:05;;;;;;;3.15;0.30;;;;;;;14.37;80.22;100562.00;5013436;28;20410;-78
2023/09/23 07:12:32;;;;;;;1.25;0.20;;;;;;;14.40;80.17;100561.06;5019907;28;20041;-77
2023/09/23 07:14:58;;;;;;;0.35;0.20;;;;;;;14.43;80.24;100571.44;5020969;28;20490;-78
2023/09/23 07:17:28;;;;;;;0.90;0.22;;;;;;;14.44;80.22;100570.50;5024356;28;20468;-78
2023/09/23 07:19:55;;;;;;;1.73;0.30;;;;;;;14.47;80.36;100580.91;5023200;28;20048;-78
2023/09/23 07:22:22;;;;;;;0.73;0.28;;;;;;;14.48;80.36;100579.97;5027137;28;20041;-78
2023/09/23 07:24:49;;;;;;;0.75;0.20;;;;;;;14.50;80.59;100583.41;5023342;28;20124;-79
2023/09/23 07:27:16;;;;;;;0.88;0.20;;;;;;;14.54;80.50;100584.19;5023498;28;20128;-79
2023/09/23 07:29:42;;;;;;;1.75;0.30;;;;;;;14.57;80.62;100590.22;5014275;28;20059;-79
2023/09/23 07:32:09;;;;;;;1.23;0.30;;;;;;;14.57;80.50;100590.22;5023439;28;20045;-79
2023/09/23 07:34:38;;;;;;;0.90;0.30;;;;;;;14.62;80.76;100592.66;5021319;28;20050;-79
2023/09/23 07:37:06;;;;;;;1.13;0.30;;;;;;;14.66;80.91;100588.13;5017211;28;20046;-75
2023/09/23 07:39:33;;;;;;;1.15;0.30;;;;;;;14.67;81.11;100585.44;5014607;28;20132;-76
2023/09/23 07:42:00;;;;;;;4.13;0.50;;;;;;;14.69;81.08;100582.78;5016794;28;20067;-75
2023/09/23 07:44:36;;;;;;;0.50;0.20;;;;;;;14.74;81.05;100586.06;5013000;28;20486;-75
2023/09/23 07:47:02;;;;;;;0.50;0.30;;;;;;;14.76;81.00;100581.59;5015636;28;20058;-75
2023/09/23 07:49:29;;;;;;;1.83;0.65;;;;;;;14.81;81.19;100584.91;5015399;28;20111;-75
2023/09/23 07:51:58;;;;;;;0.70;0.30;;;;;;;14.84;81.30;100583.00;5014502;28;20046;-76
2023/09/23 07:54:25;;;;;;;0.30;0.20;;;;;;;14.88;81.23;100586.38;5014048;28;20048;-76
2023/09/23 07:56:52;;;;;;;5.18;0.40;;;;;;;14.92;81.38;100577.47;5022426;28;20049;-76
2023/09/23 07:59:19;;;;;;;1.42;0.30;;;;;;;14.97;81.34;100572.88;5013921;28;20491;-75
2023/09/23 08:01:46;;;;;;;5.68;0.40;;;;;;;15.02;81.44;100565.63;5017950;28;20457;-75
2023/09/23 08:04:13;;;;;;;0.38;0.30;;;;;;;15.08;81.22;100567.16;5016070;28;20767;-76
2023/09/23 08:06:40;;;;;;;1.17;0.73;;;;;;;15.13;81.27;100567.84;5017246;28;20073;-75
2023/09/23 08:09:10;;;;;;;2.05;0.30;;;;;;;15.19;81.03;100577.25;5014062;28;20486;-75
2023/09/23 08:11:36;;;;;;;3.83;0.30;;;;;;;15.24;80.84;100576.16;5014936;28;20045;-76
2023/09/23 08:14:03;;;;;;;1.40;0.30;;;;;;;15.29;80.89;100573.34;5016730;28;20415;-75
2023/09/23 08:16:30;;;;;;;0.60;0.30;;;;;;;15.34;80.80;100576.66;5014068;28;20041;-75
2023/09/23 08:18:57;;;;;;;1.65;0.28;;;;;;;15.38;80.32;100572.97;5017722;28;20095;-75
2023/09/23 08:21:24;;;;;;;0.75;0.50;;;;;;;15.43;80.46;100578.91;5014330;28;20045;-73
2023/09/23 08:23:51;;;;;;;0.60;0.40;;;;;;;15.48;80.41;100589.22;5015211;28;20739;-75
2023/09/23 08:26:20;;;;;;;0.22;0.20;;;;;;;15.52;80.15;100588.19;5015832;28;20056;-77
2023/09/23 08:28:47;;;;;;;1.27;0.20;;;;;;;15.55;80.06;100590.69;5018411;28;20683;-77
2023/09/23 08:31:14;;;;;;;1.70;0.20;;;;;;;15.61;79.93;100590.41;5012591;28;20037;-76
2023/09/23 08:33:41;;;;;;;0.82;0.40;;;;;;;15.65;80.05;100591.13;5016119;28;20048;-76
2023/09/23 08:36:08;;;;;;;1.45;0.32;;;;;;;15.70;80.04;100581.31;5014961;28;20056;-76
2023/09/23 08:38:35;;;;;;;0.45;0.30;;;;;;;15.75;80.06;100579.34;5020294;28;20095;-76
2023/09/23 08:41:06;;;;;;;2.70;0.20;;;;;;;15.80;79.88;100579.16;5013276;28;20810;-75
2023/09/23 08:43:37;;;;;;;2.38;0.30;;;;;;;15.84;79.96;100578.06;5014820;28;20121;-75
2023/09/23 08:46:05;;;;;;;1.10;0.30;;;;;;;15.89;79.95;100584.84;5020949;28;20107;-82
2023/09/23 08:48:33;;;;;;;0.65;0.30;;;;;;;15.93;79.91;100586.41;5020599;28;20057;-82
2023/09/23 08:51:02;;;;;;;2.05;0.40;;;;;;;15.99;79.77;100581.81;5023868;28;20084;-82
2023/09/23 08:53:31;;;;;;;11.18;0.75;;;;;;;16.03;79.73;100583.41;5019625;28;20049;-82
2023/09/23 08:55:58;;;;;;;0.88;0.40;;;;;;;16.08;79.67;100584.03;5022979;28;20049;-83
2023/09/23 08:58:25;;;;;;;0.47;0.30;;;;;;;16.13;79.74;100592.59;5020338;28;20410;-82
2023/09/23 09:00:54;;;;;;;0.88;0.30;;;;;;;16.16;79.56;100589.81;5022818;28;20050;-83
2023/09/23 09:03:21;;;;;;;2.58;0.30;;;;;;;16.22;79.42;100591.34;5026190;28;20519;-82
2023/09/23 09:05:48;;;;;;;0.70;0.30;;;;;;;16.28;79.00;100589.28;5022022;28;20045;-82
2023/09/23 09:08:16;;;;;;;0.40;0.30;;;;;;;16.37;78.97;100588.03;5023576;28;20490;-83
2023/09/23 09:10:43;;;;;;;0.60;0.30;;;;;;;16.44;78.80;100593.88;5019464;28;20046;-82
2023/09/23 09:13:10;;;;;;;1.50;0.40;;;;;;;16.51;79.29;100592.66;5021522;28;20124;-82
2023/09/23 09:15:38;;;;;;;0.77;0.30;;;;;;;16.60;79.16;100592.25;5027131;28;20057;-82
2023/09/23 09:18:06;;;;;;;2.58;0.30;;;;;;;16.62;78.50;100585.97;5024779;28;20048;-83
2023/09/23 09:20:34;;;;;;;1.20;0.45;;;;;;;16.91;78.09;100590.84;5026976;28;20130;-81
2023/09/23 09:23:02;;;;;;;1.38;0.38;;;;;;;16.83;78.07;100583.28;5022341;28;20053;-80
2023/09/23 09:25:31;;;;;;;2.33;0.50;;;;;;;16.89;78.00;100582.13;5019966;28;20049;-83
2023/09/23 09:27:58;;;;;;;2.85;0.47;;;;;;;16.95;77.96;100576.56;5027249;28;20160;-83
2023/09/23 09:30:25;;;;;;;0.85;0.30;;;;;;;17.01;78.11;100573.63;5021996;28;20048;-82
2023/09/23 09:32:56;;;;;;;0.32;0.30;;;;;;;17.09;77.77;100571.47;5024937;28;20056;-83
2023/09/23 09:35:27;;;;;;;0.75;0.38;;;;;;;17.17;77.99;100577.22;5026441;28;20085;-76
2023/09/23 09:37:59;;;;;;;1.85;0.40;;;;;;;17.23;77.81;100576.91;5014376;28;20127;-76
2023/09/23 09:40:28;;;;;;;0.50;0.40;;;;;;;17.29;77.38;100576.59;5016486;28;20136;-76
2023/09/23 09:43:00;;;;;;;1.20;0.30;;;;;;;17.35;76.89;100578.09;5011342;28;20062;-76
2023/09/23 09:45:31;;;;;;;5.43;0.35;;;;;;;17.38;76.98;100572.66;5016640;28;20042;-75
2023/09/23 09:48:00;;;;;;;4.07;0.40;;;;;;;17.44;76.42;100576.78;5014004;28;20046;-76
2023/09/23 09:50:31;;;;;;;0.30;0.30;;;;;;;17.47;76.04;100574.81;5024048;28;20087;-76
2023/09/23 09:52:58;;;;;;;2.67;0.40;;;;;;;17.51;75.69;100576.41;5021119;28;20082;-76
2023/09/23 09:55:25;;;;;;;0.52;0.30;;;;;;;17.57;75.84;100574.38;5019866;28;20038;-73
2023/09/23 09:57:55;;;;;;;2.22;0.40;;;;;;;17.54;75.78;100570.13;5013708;28;20847;-72
2023/09/23 10:00:27;;;;;;;2.92;0.57;;;;;;;17.68;75.51;100586.13;5017841;28;20141;-73
2023/09/23 10:03:00;;;;;;;1.52;0.40;;;;;;;17.71;75.34;100579.81;5018430;28;20064;-73
2023/09/23 10:05:36;;;;;;;2.92;0.40;;;;;;;17.75;75.16;100584.00;5020209;28;20053;-72
2023/09/23 10:08:12;;;;;;;2.47;0.40;;;;;;;17.77;74.47;100585.63;5018881;28;20120;-73
2023/09/23 10:10:46;;;;;;;1.17;0.32;;;;;;;17.81;74.48;100588.16;5015116;28;20076;-72
2023/09/23 10:13:14;;;;;;;0.63;0.20;;;;;;;17.86;74.30;100591.41;5018949;28;20105;-72
2023/09/23 10:15:41;;;;;;;0.52;0.40;;;;;;;17.88;73.89;100590.41;5017340;28;20053;-72
2023/09/23 10:18:14;;;;;;;2.05;0.30;;;;;;;17.91;73.47;100586.75;5018045;28;20057;-72
2023/09/23 10:20:48;;;;;;;0.32;0.30;;;;;;;17.93;73.38;100590.16;5016356;28;20060;-71
2023/09/23 10:23:17;;;;;;;1.52;0.40;;;;;;;17.95;73.35;100597.06;5013124;28;20370;-72
2023/09/23 10:25:45;;;;;;;0.43;0.22;;;;;;;17.95;73.14;100588.28;5017657;28;20042;-73
2023/09/23 10:28:20;;;;;;;0.45;0.30;;;;;;;17.98;73.25;100596.06;5018622;28;20080;-73
2023/09/23 10:30:56;;;;;;;;;;;;;;;18.01;73.43;100590.59;5021147;28;20525;-73
2023/09/23 10:33:24;;;;;;;0.77;0.40;;;;;;;18.01;73.24;100605.63;5019962;28;19921;-73
2023/09/23 10:35:56;;;;;;;0.68;0.30;;;;;;;18.02;73.05;100592.34;5018581;28;20076;-73
2023/09/23 10:38:24;;;;;;;0.50;0.30;;;;;;;18.04;73.36;100594.88;5016191;28;20052;-73
2023/09/23 10:40:52;;;;;;;0.30;0.30;;;;;;;18.08;72.82;100597.28;5016115;28;20057;-74
2023/09/23 10:43:22;;;;;;;1.98;0.35;;;;;;;18.11;72.48;100596.28;5021557;28;20053;-72
2023/09/23 10:45:49;;;;;;;0.30;0.20;;;;;;;18.14;72.11;100596.13;5017805;28;20461;-75
2023/09/23 10:48:19;;;;;;;0.45;0.30;;;;;;;18.15;71.81;100590.72;5019758;28;20045;-75
2023/09/23 10:50:46;;;;;;;0.52;0.20;;;;;;;18.17;71.40;100594.16;5022968;28;20052;-74
2023/09/23 10:53:15;;;;;;;0.25;0.20;;;;;;;18.19;71.56;100584.38;5015678;28;20443;-74
2023/09/23 10:55:42;;;;;;;1.33;0.20;;;;;;;18.22;71.61;100588.63;5006127;28;20475;-74
2023/09/23 10:58:10;;;;;;;1.75;0.20;;;;;;;18.25;71.13;100588.47;5019678;28;20226;-74
2023/09/23 11:00:38;;;;;;;2.83;0.30;;;;;;;18.27;70.77;100578.69;5017785;28;20049;-74
2023/09/23 11:03:09;;;;;;;0.88;0.20;;;;;;;18.30;70.43;100590.84;5017552;28;20072;-75
2023/09/23 11:05:38;;;;;;;1.85;0.20;;;;;;;18.32;70.52;100584.56;5018827;28;20084;-80
2023/09/23 11:08:06;;;;;;;1.23;0.20;;;;;;;18.33;69.99;100583.63;5021332;28;20049;-80
2023/09/23 11:10:38;;;;;;;0.40;0.30;;;;;;;18.37;70.41;100586.97;5026148;28;20120;-80
2023/09/23 11:13:06;;;;;;;1.00;0.20;;;;;;;18.39;69.90;100580.66;5024994;28;20045;-80
2023/09/23 11:15:33;;;;;;;1.75;0.20;;;;;;;18.43;70.28;100586.63;5027154;28;20037;-79
2023/09/23 11:18:00;;;;;;;1.50;0.10;;;;;;;18.44;69.81;100588.31;5027226;28;20050;-80
2023/09/23 11:20:31;;;;;;;1.50;0.30;;;;;;;18.47;69.76;100588.19;5026318;28;20050;-80
2023/09/23 11:23:02;;;;;;;0.68;0.20;;;;;;;18.50;69.03;100592.41;5022717;28;20046;-82
2023/09/23 11:25:29;;;;;;;0.55;0.20;;;;;;;18.53;68.88;100587.00;5029331;28;20041;-81
2023/09/23 11:28:00;;;;;;;2.15;0.20;;;;;;;18.55;68.59;100591.22;5019293;28;20057;-81
2023/09/23 11:30:27;;;;;;;0.47;0.20;;;;;;;18.57;68.75;100593.81;5027980;28;20071;-81